Woodsprings, Arizona
Current Conditions -  °F | °C
As of 12:53 AM on Saturday 20 Dec 2014 (Local Time) from KRQE Reporting Station
Clear Clear  
Wind Chill: -4°   Ceiling: Unl
Heat Index: -4°   Visibility: 10mi
Dew Point: -7°   Wind: 3mph
Humidity: 84%   Direction: 260°W
Pressure: 30.2"   Gusts: NA
Location:  35.6053°N, 109.458°W
Report Text: KRQE 200753Z AUTO 26003KT 10SM CLR M04/M07 A3020 RMK AO2 SLP211 T10441067 TSNO
Loading
Personal Weather Stations






























Interactive Weather Map New forecast layout! Learn more

10-Day Weather Forecast

Advertisements
Track Severe Weather on mobile